KPIT

Pittsburgh International Airport

Pittsburgh, Pennsylvania, USA
METAR KPIT 230951Z 22008KT 10SM FEW060 FEW250 07/01 A3004 RMK AO2 SLP181 T00720011
Observed Flight Rules
Oct-23 @ 09:51 UTC (20 minutes ago) Visual Flight Rules
Wind Visibility Clouds
220° at 8 knots 10 miles
  • Few at 6,000' AGL
  • Few at 25,000' AGL
Temperatures Readings
Current 7°C / 45°F
Dewpoint 1°C / 34°F
Humidity 66%
Altimeter 30.04" Hg
Pressure 1018.1 hPa
Elevation 357
METAR KPIT 230951Z 22008KT 10SM FEW060 FEW250 07/01 A3004 RMK AO2 SLP181 T00720011
Observed Flight Rules
Oct-23 @ 09:51 UTC
(20 minutes ago)
VFR
Wind Visibility
220° at 8 knots 10 miles
Clouds
  • Few at 6,000' AGL
  • Few at 25,000' AGL
Temperature Dewpoint
7°C / 45°F 1°C / 34°F
Humidity Altimeter Pressure
66% 30.04" Hg 1018.1 hPa